Time;durP1;ratioP1;P1;durP2;ratioP2;P2;SDS_P1;SDS_P2;PMS_P1;PMS_P2;Temp;Humidity;BMP_temperature;BMP_pressure;BME280_temperature;BME280_humidity;BME280_pressure;Samples;Min_cycle;Max_cycle;Signal;HPM_P1;HPM_P2
2021/12/29 00:02:18;;;;;;;19.65;16.90;;;;;;;7.38;100.00;100038.16;5009796;28;20489;-60
2021/12/29 00:04:43;;;;;;;19.23;15.70;;;;;;;7.37;100.00;100044.16;5009531;28;20042;-61
2021/12/29 00:07:10;;;;;;;21.88;15.57;;;;;;;7.37;100.00;100047.63;5009764;28;20075;-62
2021/12/29 00:09:37;;;;;;;18.55;14.90;;;;;;;7.37;100.00;100052.78;5008166;28;20049;-61
2021/12/29 00:12:04;;;;;;;17.17;15.27;;;;;;;7.37;100.00;100062.19;5009618;28;20644;-61
2021/12/29 00:14:29;;;;;;;20.13;15.93;;;;;;;7.38;100.00;100069.97;5009301;28;20034;-60
2021/12/29 00:16:56;;;;;;;15.80;13.73;;;;;;;7.38;100.00;100074.25;5009117;28;20372;-62
2021/12/29 00:19:21;;;;;;;16.67;14.85;;;;;;;7.38;100.00;100085.44;5008947;28;20532;-60
2021/12/29 00:21:47;;;;;;;15.52;13.07;;;;;;;7.39;100.00;100104.38;5007901;28;20072;-62
2021/12/29 00:24:12;;;;;;;15.57;12.82;;;;;;;7.39;100.00;100115.56;5009401;28;20029;-61
2021/12/29 00:26:37;;;;;;;16.38;12.82;;;;;;;7.39;100.00;100112.09;5009265;28;20022;-61
2021/12/29 00:29:03;;;;;;;13.65;12.30;;;;;;;7.38;100.00;100113.78;5009218;28;20041;-61
2021/12/29 00:31:30;;;;;;;13.13;11.68;;;;;;;7.38;100.00;100110.34;5009349;28;20096;-61
2021/12/29 00:33:56;;;;;;;14.52;11.45;;;;;;;7.37;100.00;100104.31;5008727;28;20059;-60
2021/12/29 00:36:21;;;;;;;11.75;10.55;;;;;;;7.37;100.00;100116.31;5008802;28;20108;-61
2021/12/29 00:38:47;;;;;;;11.07;9.93;;;;;;;7.38;100.00;100121.53;5008874;28;20030;-61
2021/12/29 00:41:14;;;;;;;13.52;9.48;;;;;;;7.38;100.00;100134.41;5009365;28;20031;-60
2021/12/29 00:43:39;;;;;;;11.63;9.88;;;;;;;7.38;100.00;100136.09;5008723;28;20029;-62
2021/12/29 00:46:07;;;;;;;10.05;9.05;;;;;;;7.37;100.00;100140.41;5009099;28;20105;-61
2021/12/29 00:48:36;;;;;;;11.43;10.15;;;;;;;7.35;100.00;100144.63;5008945;28;20030;-61
2021/12/29 00:51:03;;;;;;;13.23;11.15;;;;;;;7.37;100.00;100149.84;5008836;28;20030;-60
2021/12/29 00:53:29;;;;;;;12.48;11.15;;;;;;;7.36;100.00;100159.25;5008775;28;20041;-61
2021/12/29 00:55:54;;;;;;;13.57;12.15;;;;;;;7.36;100.00;100148.09;5008683;28;20026;-61
2021/12/29 00:58:19;;;;;;;13.10;11.70;;;;;;;7.38;100.00;100159.31;5008992;28;20173;-62
2021/12/29 01:00:45;;;;;;;13.05;11.57;;;;;;;7.36;100.00;100167.00;5009185;28;20136;-61
2021/12/29 01:03:11;;;;;;;13.00;11.55;;;;;;;7.36;100.00;100167.00;5013893;28;20508;-62
2021/12/29 01:05:37;;;;;;;11.30;10.20;;;;;;;7.36;100.00;100179.88;5015611;28;20030;-60
2021/12/29 01:08:03;;;;;;;12.43;11.15;;;;;;;7.37;100.00;100183.34;5015386;28;20079;-61
2021/12/29 01:10:29;;;;;;;12.18;10.90;;;;;;;7.33;100.00;100190.97;5015319;28;20069;-61
2021/12/29 01:12:58;;;;;;;13.25;11.82;;;;;;;7.34;100.00;100189.25;5015177;28;20044;-61
2021/12/29 01:15:34;;;;;;;12.75;11.55;;;;;;;7.35;100.00;100198.75;5015458;28;20021;-61
2021/12/29 01:18:05;;;;;;;12.52;11.18;;;;;;;7.36;100.00;100203.09;5009359;28;20030;-61
2021/12/29 01:20:31;;;;;;;;;;;;;;;7.34;100.00;100209.88;5015431;28;20034;-61
2021/12/29 01:22:58;;;;;;;12.93;11.63;;;;;;;7.34;100.00;100215.03;5011546;28;19956;-61
2021/12/29 01:25:24;;;;;;;13.45;12.05;;;;;;;7.34;100.00;100215.03;5015402;28;20034;-61
2021/12/29 01:27:50;;;;;;;15.23;13.63;;;;;;;7.35;100.00;100219.38;5015393;28;20274;-60
2021/12/29 01:30:16;;;;;;;18.15;15.13;;;;;;;7.33;100.00;100231.34;5010010;28;20033;-62
2021/12/29 01:32:42;;;;;;;17.08;15.27;;;;;;;7.32;100.00;100230.44;5014918;28;20041;-61
2021/12/29 01:35:09;;;;;;;16.67;14.93;;;;;;;7.33;100.00;100241.66;5015299;28;20033;-62
2021/12/29 01:37:35;;;;;;;18.77;16.13;;;;;;;7.32;100.00;100247.63;5015225;28;20076;-61
2021/12/29 01:40:03;;;;;;;22.02;16.77;;;;;;;7.32;100.00;100257.94;5015120;28;20026;-61
2021/12/29 01:42:29;;;;;;;18.20;16.13;;;;;;;7.30;100.00;100268.19;5014994;28;20033;-61
2021/12/29 01:44:54;;;;;;;19.42;16.80;;;;;;;7.31;100.00;100264.78;5015331;28;20436;-61
2021/12/29 01:47:29;;;;;;;18.75;16.55;;;;;;;7.33;100.00;100277.72;5015266;28;20033;-60
2021/12/29 01:49:55;;;;;;;23.25;18.75;;;;;;;7.32;100.00;100270.84;5014509;28;20073;-61
2021/12/29 01:52:25;;;;;;;19.90;16.73;;;;;;;7.32;100.00;100281.16;5015290;28;20105;-62
2021/12/29 01:54:51;;;;;;;21.73;17.05;;;;;;;7.33;100.00;100273.47;5015226;28;20541;-61
2021/12/29 01:57:18;;;;;;;22.55;18.85;;;;;;;7.32;100.00;100286.31;5015172;28;20112;-61
2021/12/29 01:59:43;;;;;;;21.80;18.05;;;;;;;7.32;100.00;100288.88;5014966;28;20026;-61
2021/12/29 02:02:14;;;;;;;22.50;18.42;;;;;;;7.32;100.00;100292.31;5015014;28;20041;-62
2021/12/29 02:04:44;;;;;;;20.08;17.85;;;;;;;7.31;100.00;100300.88;5014742;28;20418;-61
2021/12/29 02:07:09;;;;;;;24.13;18.88;;;;;;;7.31;100.00;100295.72;5015182;28;20022;-61
2021/12/29 02:09:36;;;;;;;22.92;17.60;;;;;;;7.32;100.00;100304.34;5014458;28;20079;-60
2021/12/29 02:12:02;;;;;;;22.67;18.67;;;;;;;7.32;100.00;100305.19;5014782;28;20025;-62
2021/12/29 02:14:27;;;;;;;24.55;19.38;;;;;;;7.31;100.00;100311.19;5012229;28;20029;-61
2021/12/29 02:16:53;;;;;;;21.92;19.70;;;;;;;7.31;100.00;100311.19;5011771;28;20026;-61
2021/12/29 02:19:18;;;;;;;22.67;19.80;;;;;;;7.30;100.00;100309.41;5011724;28;20100;-61
2021/12/29 02:21:53;;;;;;;21.25;18.90;;;;;;;7.30;100.00;100319.72;5011706;28;20037;-61
2021/12/29 02:24:21;;;;;;;24.08;19.67;;;;;;;7.29;100.00;100317.09;5011511;28;20447;-61
2021/12/29 02:26:46;;;;;;;26.67;19.60;;;;;;;7.29;100.00;100320.56;5011386;28;20087;-61
2021/12/29 02:29:15;;;;;;;22.95;18.92;;;;;;;7.29;100.00;100312.84;5012015;28;20026;-61
2021/12/29 02:31:41;;;;;;;21.27;18.98;;;;;;;7.31;100.00;100320.63;5011450;28;20493;-62
2021/12/29 02:34:09;;;;;;;24.13;20.67;;;;;;;7.31;100.00;100323.19;5011954;28;20022;-60
2021/12/29 02:36:35;;;;;;;25.52;19.73;;;;;;;7.30;100.00;100324.03;5011689;28;20096;-59
2021/12/29 02:39:03;;;;;;;23.92;20.48;;;;;;;7.29;100.00;100329.97;5011522;28;20025;-61
2021/12/29 02:41:31;;;;;;;26.92;21.33;;;;;;;7.28;100.00;100334.28;5010917;28;20014;-62
2021/12/29 02:44:01;;;;;;;23.42;20.88;;;;;;;7.29;100.00;100332.56;5010743;28;20033;-60
2021/12/29 02:46:29;;;;;;;28.45;21.30;;;;;;;7.29;100.00;100337.72;5011630;28;20394;-61
2021/12/29 02:48:59;;;;;;;24.25;21.35;;;;;;;7.27;100.00;100335.09;5010846;28;20142;-61
2021/12/29 02:51:33;;;;;;;27.33;23.15;;;;;;;7.26;100.00;100327.31;5011142;28;20068;-61
2021/12/29 02:53:59;;;;;;;29.20;22.23;;;;;;;7.26;100.00;100332.47;5010676;28;20029;-61
2021/12/29 02:56:26;;;;;;;28.95;23.15;;;;;;;7.23;100.00;100328.09;5010928;28;20022;-61
2021/12/29 02:58:53;;;;;;;30.10;22.67;;;;;;;7.23;100.00;100332.34;5010970;28;20467;-61
2021/12/29 03:01:19;;;;;;;28.58;23.13;;;;;;;7.23;100.00;100340.09;5011174;28;20113;-60
2021/12/29 03:03:45;;;;;;;31.02;23.10;;;;;;;7.21;100.00;100338.31;5010875;28;20029;-61
2021/12/29 03:06:12;;;;;;;29.75;22.70;;;;;;;7.23;100.00;100340.97;5010896;28;20402;-61
2021/12/29 03:08:38;;;;;;;30.35;23.48;;;;;;;7.21;100.00;100345.19;5010776;28;20030;-62
2021/12/29 03:11:05;;;;;;;31.38;23.17;;;;;;;7.21;100.00;100361.50;5010189;28;20490;-61
2021/12/29 03:13:33;;;;;;;29.05;22.55;;;;;;;7.19;100.00;100362.28;5010914;28;20467;-61
2021/12/29 03:15:59;;;;;;;25.13;20.92;;;;;;;7.19;100.00;100368.31;5010592;28;20034;-61
2021/12/29 03:18:24;;;;;;;26.67;20.73;;;;;;;7.18;100.00;100376.84;5010487;28;20460;-59
2021/12/29 03:20:50;;;;;;;28.63;22.88;;;;;;;7.17;100.00;100377.69;5010502;28;20026;-61
2021/12/29 03:23:18;;;;;;;32.03;22.02;;;;;;;7.17;100.00;100384.53;5010242;28;20423;-62
2021/12/29 03:25:47;;;;;;;27.50;22.38;;;;;;;7.17;100.00;100369.06;5007923;28;20034;-62
2021/12/29 03:28:13;;;;;;;29.17;21.98;;;;;;;7.15;100.00;100381.91;5010700;28;20100;-61
2021/12/29 03:30:43;;;;;;;28.15;22.60;;;;;;;7.15;100.00;100392.22;5008962;28;20390;-61
2021/12/29 03:33:09;;;;;;;32.60;23.27;;;;;;;7.15;100.00;100394.78;5010297;28;20026;-61
2021/12/29 03:35:41;;;;;;;29.83;23.33;;;;;;;7.15;100.00;100402.50;5010494;28;20560;-62
2021/12/29 03:38:12;;;;;;;30.17;23.35;;;;;;;7.14;100.00;100403.31;5010020;28;20109;-61
2021/12/29 03:40:38;;;;;;;32.92;23.40;;;;;;;7.13;100.00;100404.16;5009536;28;20033;-60
2021/12/29 03:43:05;;;;;;;34.55;22.73;;;;;;;7.15;100.00;100411.94;5010491;28;20025;-61
2021/12/29 03:45:30;;;;;;;33.20;23.20;;;;;;;7.14;100.00;100410.19;5010228;28;20030;-62
2021/12/29 03:47:56;;;;;;;32.13;22.85;;;;;;;7.13;100.00;100419.59;5010106;28;20034;-61
2021/12/29 03:50:21;;;;;;;34.20;23.95;;;;;;;7.13;100.00;100414.47;5010253;28;20053;-61
2021/12/29 03:52:47;;;;;;;35.72;24.10;;;;;;;7.13;100.00;100429.03;5009534;28;20024;-61
2021/12/29 03:55:13;;;;;;;32.85;23.60;;;;;;;7.12;100.00;100428.19;5010117;28;20025;-61
2021/12/29 03:57:39;;;;;;;28.27;22.23;;;;;;;7.12;100.00;100429.88;5009409;28;20084;-60
2021/12/29 04:00:09;;;;;;;26.90;21.42;;;;;;;7.13;100.00;100437.66;5009792;28;20391;-62
2021/12/29 04:02:34;;;;;;;31.08;21.63;;;;;;;7.13;100.00;100439.34;5009846;28;20508;-62
2021/12/29 04:05:01;;;;;;;27.45;21.63;;;;;;;7.11;100.00;100441.84;5009617;28;20022;-61
2021/12/29 04:07:27;;;;;;;28.98;21.65;;;;;;;7.11;100.00;100435.81;5010008;28;20018;-61
2021/12/29 04:09:52;;;;;;;32.13;22.02;;;;;;;7.11;100.00;100435.81;5008689;28;20050;-62
2021/12/29 04:12:18;;;;;;;31.30;23.23;;;;;;;7.10;100.00;100429.81;5009533;28;20087;-62
2021/12/29 04:14:43;;;;;;;33.55;23.60;;;;;;;7.10;100.00;100442.69;5009204;28;20088;-62
2021/12/29 04:17:12;;;;;;;33.75;21.73;;;;;;;7.09;100.00;100449.53;5009504;28;20096;-62
2021/12/29 04:20:54;;;;;;;33.67;23.38;;;;;;;7.08;100.00;100452.94;5009833;28;20053;-61
2021/12/29 04:22:30;;;;;;;27.35;21.88;;;;;;;7.09;100.00;100452.09;5009295;28;20434;-61
2021/12/29 04:24:56;;;;;;;29.50;21.63;;;;;;;7.07;100.00;100452.84;5009085;28;20026;-62
2021/12/29 04:27:23;;;;;;;32.30;21.80;;;;;;;7.07;100.00;100455.44;5009629;28;20120;-61
2021/12/29 04:29:49;;;;;;;29.10;22.02;;;;;;;7.07;100.00;100456.31;5009259;28;20026;-60
2021/12/29 04:32:14;;;;;;;31.27;22.80;;;;;;;7.08;100.00;100462.34;5009137;28;20030;-61
2021/12/29 04:34:40;;;;;;;29.15;22.63;;;;;;;7.06;100.00;100470.03;5009071;28;20137;-62
2021/12/29 04:37:05;;;;;;;29.92;23.05;;;;;;;7.07;100.00;100471.78;5008741;28;20101;-60
2021/12/29 04:39:30;;;;;;;30.63;22.88;;;;;;;7.07;100.00;100476.03;5008723;28;20037;-62
2021/12/29 04:41:56;;;;;;;36.30;22.67;;;;;;;7.07;100.00;100481.19;5008694;28;20038;-62
2021/12/29 04:44:21;;;;;;;29.73;21.48;;;;;;;7.07;100.00;100483.78;5009372;28;20030;-62
2021/12/29 04:46:47;;;;;;;31.70;21.55;;;;;;;7.06;100.00;100484.59;5003473;28;20040;-61
2021/12/29 04:49:14;;;;;;;30.30;22.13;;;;;;;7.06;100.00;100494.91;5004549;28;20025;-61
2021/12/29 04:51:56;;;;;;;27.58;22.08;;;;;;;7.06;100.00;100506.09;5008901;28;20021;-60
2021/12/29 04:54:21;;;;;;;;;;;;;;;7.06;100.00;100507.78;5009403;28;20029;-60
2021/12/29 04:56:46;;;;;;;27.35;20.35;;;;;;;7.04;100.00;100509.41;5008910;28;19913;-62
2021/12/29 04:59:14;;;;;;;35.00;22.80;;;;;;;7.05;100.00;100513.78;5009033;28;20041;-61
2021/12/29 05:01:40;;;;;;;31.63;21.85;;;;;;;7.04;100.00;100512.88;5008678;28;20117;-62
2021/12/29 05:04:06;;;;;;;25.70;20.88;;;;;;;7.04;100.00;100518.03;5004213;28;20104;-59
2021/12/29 05:09:15;;;;;;;30.05;22.38;;;;;;;7.05;100.00;100517.22;5008653;28;20048;-61
2021/12/29 05:11:40;;;;;;;28.25;21.63;;;;;;;7.05;100.00;100516.34;5008423;28;20018;-61
2021/12/29 05:14:06;;;;;;;27.83;21.17;;;;;;;7.03;100.00;100512.81;5009018;28;20034;-61
2021/12/29 05:16:31;;;;;;;27.80;21.20;;;;;;;7.05;100.00;100521.50;5008981;28;20030;-61
2021/12/29 05:18:57;;;;;;;24.98;20.15;;;;;;;7.04;100.00;100522.31;5009001;28;20526;-62
2021/12/29 05:21:22;;;;;;;32.53;21.67;;;;;;;7.03;100.00;100521.44;5008602;28;20109;-62
2021/12/29 05:23:48;;;;;;;26.40;20.50;;;;;;;7.03;100.00;100518.88;5008410;28;20036;-61
2021/12/29 05:26:13;;;;;;;26.08;20.80;;;;;;;7.02;100.00;100519.66;5008744;28;20095;-61
2021/12/29 05:28:39;;;;;;;28.85;21.40;;;;;;;7.02;100.00;100513.63;5008460;28;20438;-61
2021/12/29 05:31:04;;;;;;;30.88;20.92;;;;;;;7.03;100.00;100523.13;5008723;28;20026;-62
2021/12/29 05:33:29;;;;;;;26.42;19.50;;;;;;;7.02;100.00;100524.81;5007102;28;20038;-62
2021/12/29 05:35:55;;;;;;;28.20;20.40;;;;;;;7.03;100.00;100525.72;5007001;28;20116;-61
2021/12/29 05:38:20;;;;;;;29.10;21.15;;;;;;;7.02;100.00;100529.97;5008364;28;20524;-61
2021/12/29 05:40:48;;;;;;;28.30;21.58;;;;;;;7.02;100.00;100534.25;5008198;28;20022;-62
2021/12/29 05:43:13;;;;;;;27.50;21.20;;;;;;;7.01;100.00;100532.50;4998898;28;20049;-62
2021/12/29 05:45:39;;;;;;;29.83;20.63;;;;;;;7.00;100.00;100536.75;5008516;28;20115;-61
2021/12/29 05:48:05;;;;;;;26.77;20.30;;;;;;;7.01;100.00;100542.78;5008795;28;20034;-60
2021/12/29 05:50:31;;;;;;;28.38;21.25;;;;;;;6.99;100.00;100540.16;5011856;28;20045;-61
2021/12/29 05:52:58;;;;;;;27.75;20.52;;;;;;;6.99;100.00;100534.13;5012253;28;20037;-61
2021/12/29 05:55:24;;;;;;;26.35;20.70;;;;;;;6.99;100.00;100534.13;5012063;28;20073;-60
2021/12/29 05:57:49;;;;;;;25.63;20.63;;;;;;;6.99;100.00;100539.28;5011649;28;20387;-62
2021/12/29 06:00:17;;;;;;;29.50;21.05;;;;;;;7.01;100.00;100537.66;5012069;28;20026;-61
2021/12/29 06:02:43;;;;;;;29.98;20.23;;;;;;;6.97;100.00;100537.53;5011695;28;20036;-61
2021/12/29 06:05:09;;;;;;;26.48;19.15;;;;;;;6.96;100.00;100530.59;5012805;28;20129;-61
2021/12/29 06:07:36;;;;;;;26.25;19.85;;;;;;;6.96;100.00;100540.91;5011880;28;20029;-60
2021/12/29 06:10:03;;;;;;;28.70;19.70;;;;;;;6.96;100.00;100540.03;5010957;28;20467;-62
2021/12/29 06:12:28;;;;;;;25.50;19.52;;;;;;;6.94;100.00;100546.81;5012184;28;20034;-61
2021/12/29 06:14:55;;;;;;;26.50;19.73;;;;;;;6.94;100.00;100559.69;5012232;28;20524;-61
2021/12/29 06:17:20;;;;;;;28.50;20.60;;;;;;;6.93;100.00;100566.53;5011863;28;20026;-61
2021/12/29 06:19:46;;;;;;;24.95;19.30;;;;;;;6.92;100.00;100564.78;5011519;28;20053;-62
2021/12/29 06:22:11;;;;;;;28.45;21.02;;;;;;;6.92;100.00;100563.91;5011383;28;20414;-61
2021/12/29 06:24:41;;;;;;;27.38;19.77;;;;;;;6.91;100.00;100567.28;5011561;28;20076;-61
2021/12/29 06:27:07;;;;;;;25.70;20.57;;;;;;;6.89;100.00;100577.53;5008126;28;20121;-62
2021/12/29 06:29:33;;;;;;;25.38;18.50;;;;;;;6.88;100.00;100577.47;5006905;28;20542;-60
2021/12/29 06:31:59;;;;;;;26.23;18.77;;;;;;;6.89;100.00;100580.09;5009239;28;20494;-60
2021/12/29 06:34:24;;;;;;;23.25;17.60;;;;;;;6.88;100.00;100580.91;5011241;28;20470;-62
2021/12/29 06:36:50;;;;;;;25.77;18.58;;;;;;;6.87;100.00;100575.72;5011102;28;20187;-62
2021/12/29 06:39:15;;;;;;;27.50;17.77;;;;;;;6.86;100.00;100592.84;5010739;28;20084;-61
2021/12/29 06:41:40;;;;;;;23.75;17.80;;;;;;;6.84;100.00;100590.22;5010179;28;20034;-60
2021/12/29 06:44:06;;;;;;;24.30;17.58;;;;;;;6.83;100.00;100590.16;5011058;28;20091;-62
2021/12/29 06:46:32;;;;;;;24.45;18.13;;;;;;;6.82;100.00;100599.56;5009133;28;20112;-63
2021/12/29 06:48:57;;;;;;;21.85;17.65;;;;;;;6.82;100.00;100588.38;5010766;28;20029;-60
2021/12/29 06:51:23;;;;;;;24.52;17.92;;;;;;;6.80;100.00;100587.44;5011263;28;20044;-59
2021/12/29 06:53:48;;;;;;;24.27;17.30;;;;;;;6.79;100.00;100589.13;5005803;28;20026;-62
2021/12/29 06:56:14;;;;;;;27.50;18.20;;;;;;;6.80;100.00;100596.03;5010636;28;20084;-61
2021/12/29 06:58:39;;;;;;;23.20;17.05;;;;;;;6.80;100.00;100602.91;5009115;28;20021;-60
2021/12/29 07:01:05;;;;;;;26.15;16.77;;;;;;;6.81;100.00;100602.06;5005271;28;20030;-60
2021/12/29 07:03:31;;;;;;;23.27;17.83;;;;;;;6.80;100.00;100603.75;5006930;28;20026;-60
2021/12/29 07:05:57;;;;;;;21.85;17.13;;;;;;;6.79;100.00;100599.44;5007584;28;20034;-61
2021/12/29 07:08:23;;;;;;;21.73;17.20;;;;;;;6.79;100.00;100596.88;5010395;28;20034;-60
2021/12/29 07:10:48;;;;;;;24.73;17.27;;;;;;;6.80;100.00;100608.06;5009793;28;20296;-60
2021/12/29 07:13:14;;;;;;;27.00;17.63;;;;;;;6.81;100.00;100610.69;5009640;28;20030;-62
2021/12/29 07:15:39;;;;;;;24.65;16.52;;;;;;;6.81;100.00;100617.53;5007914;28;20029;-60
2021/12/29 07:18:05;;;;;;;23.00;16.67;;;;;;;6.80;100.00;100620.94;5009740;28;20037;-61
2021/12/29 07:20:30;;;;;;;27.73;17.58;;;;;;;6.80;100.00;100636.38;5010345;28;20036;-59
2021/12/29 07:22:56;;;;;;;24.58;16.73;;;;;;;6.79;100.00;100629.47;5010420;28;20080;-60
2021/12/29 07:25:22;;;;;;;20.80;16.85;;;;;;;6.78;100.00;100630.28;5010088;28;20038;-61
2021/12/29 07:27:48;;;;;;;23.38;16.70;;;;;;;6.79;100.00;100624.31;5009020;28;20045;-61
2021/12/29 07:30:14;;;;;;;26.15;17.55;;;;;;;6.81;100.00;100638.13;5010095;28;20112;-60
2021/12/29 07:32:39;;;;;;;26.70;17.23;;;;;;;6.79;100.00;100644.91;5005589;28;20563;-60
2021/12/29 07:35:05;;;;;;;21.60;16.52;;;;;;;6.79;100.00;100650.06;5007952;28;20151;-59
2021/12/29 07:37:31;;;;;;;21.13;16.08;;;;;;;6.79;100.00;100655.22;5009300;28;20053;-60
2021/12/29 07:39:56;;;;;;;21.73;16.17;;;;;;;6.80;100.00;100659.56;5008457;28;20025;-61
2021/12/29 07:42:21;;;;;;;21.20;16.33;;;;;;;6.80;100.00;100657.84;5008971;28;20627;-60
2021/12/29 07:44:49;;;;;;;20.67;15.95;;;;;;;6.80;100.00;100662.16;5008343;28;20041;-57
2021/12/29 07:47:14;;;;;;;22.02;16.58;;;;;;;6.80;100.00;100668.16;5002147;28;20121;-61
2021/12/29 07:49:40;;;;;;;23.90;15.63;;;;;;;6.80;100.00;100663.00;5007837;28;20117;-60
2021/12/29 07:52:05;;;;;;;21.85;14.98;;;;;;;6.80;100.00;100651.84;5006638;28;20034;-61
2021/12/29 07:54:31;;;;;;;23.25;16.30;;;;;;;6.80;100.00;100650.13;5005957;28;20030;-61
2021/12/29 07:56:56;;;;;;;18.20;15.27;;;;;;;6.80;100.00;100657.00;5005738;28;20038;-61
2021/12/29 07:59:21;;;;;;;22.15;14.98;;;;;;;6.80;100.00;100657.00;5006401;28;20028;-61
2021/12/29 08:01:48;;;;;;;22.17;14.77;;;;;;;6.79;100.00;100657.78;5006013;28;20092;-61
2021/12/29 08:04:16;;;;;;;20.67;14.57;;;;;;;6.78;100.00;100656.91;5006584;28;21028;-61
2021/12/29 08:06:42;;;;;;;22.08;14.55;;;;;;;6.79;100.00;100660.38;5006771;28;20104;-60
2021/12/29 08:09:09;;;;;;;18.23;14.85;;;;;;;6.79;100.00;100662.94;5008749;28;20384;-61
2021/12/29 08:11:35;;;;;;;22.25;15.18;;;;;;;6.78;100.00;100656.03;5008833;28;20042;-61
2021/12/29 08:14:00;;;;;;;17.52;14.68;;;;;;;6.78;100.00;100671.50;5008993;28;20049;-60
2021/12/29 08:16:26;;;;;;;18.33;14.43;;;;;;;6.78;100.00;100674.06;5009166;28;20026;-61
2021/12/29 08:18:51;;;;;;;22.85;15.13;;;;;;;6.78;100.00;100668.91;5009066;28;20533;-61
2021/12/29 08:21:17;;;;;;;16.42;13.85;;;;;;;6.78;100.00;100664.63;5008949;28;20030;-60
2021/12/29 08:23:42;;;;;;;18.90;15.25;;;;;;;6.78;100.00;100663.75;5007713;28;20083;-61
2021/12/29 08:26:07;;;;;;;20.95;15.43;;;;;;;6.77;100.00;100659.41;5007493;28;20022;-61
2021/12/29 08:28:33;;;;;;;21.52;15.43;;;;;;;6.76;100.00;100655.09;5008945;28;20026;-61
2021/12/29 08:30:58;;;;;;;23.15;14.73;;;;;;;6.76;100.00;100662.81;5008706;28;20026;-61
2021/12/29 08:33:24;;;;;;;21.20;15.55;;;;;;;6.77;100.00;100667.13;5009015;28;20029;-59
2021/12/29 08:35:50;;;;;;;19.75;15.13;;;;;;;6.77;100.00;100672.28;5008106;28;20053;-60
2021/12/29 08:38:15;;;;;;;23.50;16.17;;;;;;;6.78;100.00;100668.91;5009294;28;20029;-61
2021/12/29 08:40:41;;;;;;;20.23;16.55;;;;;;;6.79;100.00;100670.66;5009108;28;20076;-61
2021/12/29 08:43:06;;;;;;;21.50;16.00;;;;;;;6.77;100.00;100667.13;5008976;28;20018;-59
2021/12/29 08:45:33;;;;;;;20.67;15.95;;;;;;;6.78;100.00;100679.22;5008313;28;20105;-61
2021/12/29 08:47:59;;;;;;;21.30;16.38;;;;;;;6.79;100.00;100673.25;5008525;28;20017;-61
2021/12/29 08:50:29;;;;;;;18.60;16.33;;;;;;;6.79;100.00;100668.09;5008827;28;20068;-61
2021/12/29 08:52:59;;;;;;;19.92;16.40;;;;;;;6.80;100.00;100677.59;5008867;28;20022;-60
2021/12/29 08:55:25;;;;;;;18.88;16.10;;;;;;;6.83;100.00;100672.56;5008732;28;20026;-60
2021/12/29 08:57:50;;;;;;;19.60;16.35;;;;;;;6.83;100.00;100672.56;5007913;28;20416;-61
2021/12/29 09:00:17;;;;;;;22.95;16.45;;;;;;;6.84;100.00;100664.03;5008025;28;20038;-61
2021/12/29 09:02:43;;;;;;;20.30;16.95;;;;;;;6.84;100.00;100669.19;5009113;28;20022;-61
2021/12/29 09:05:11;;;;;;;23.38;17.67;;;;;;;6.84;100.00;100674.31;5008842;28;20026;-60
2021/12/29 09:07:37;;;;;;;20.65;17.73;;;;;;;6.83;100.00;100678.63;5009101;28;20038;-60
2021/12/29 09:10:04;;;;;;;22.55;17.33;;;;;;;6.87;100.00;100673.59;5007650;28;20073;-61
2021/12/29 09:12:29;;;;;;;20.13;16.52;;;;;;;6.86;100.00;100667.56;5006771;28;20489;-61
2021/12/29 09:14:55;;;;;;;19.20;16.70;;;;;;;6.87;100.00;100671.91;5008042;28;20032;-60
2021/12/29 09:17:20;;;;;;;18.77;15.65;;;;;;;6.89;100.00;100675.41;5008085;28;20041;-60
2021/12/29 09:19:45;;;;;;;17.02;15.23;;;;;;;6.89;100.00;100678.00;5007258;28;20125;-60
2021/12/29 09:22:15;;;;;;;21.33;15.85;;;;;;;6.93;100.00;100668.69;5008013;28;20104;-60
2021/12/29 09:24:42;;;;;;;18.35;16.50;;;;;;;6.93;100.00;100667.00;5011409;28;20036;-60
2021/12/29 09:27:08;;;;;;;16.80;15.15;;;;;;;6.95;100.00;100667.06;5013138;28;20105;-60
2021/12/29 09:29:34;;;;;;;16.90;13.88;;;;;;;6.98;100.00;100662.06;5013860;28;20104;-62
2021/12/29 09:32:00;;;;;;;16.25;14.30;;;;;;;7.03;100.00;100652.84;5013612;28;20026;-61
2021/12/29 09:34:25;;;;;;;20.15;14.38;;;;;;;7.05;100.00;100652.91;5013295;28;20033;-61
2021/12/29 09:36:51;;;;;;;15.60;14.10;;;;;;;7.08;100.00;100658.19;5013453;28;20104;-60
2021/12/29 09:39:16;;;;;;;17.65;15.30;;;;;;;7.12;100.00;100660.09;5011815;28;20084;-60
2021/12/29 09:41:41;;;;;;;15.65;13.30;;;;;;;7.13;100.00;100656.69;5013285;28;20498;-60
2021/12/29 09:44:09;;;;;;;14.98;13.52;;;;;;;7.16;100.00;100667.13;5011036;28;20037;-61
2021/12/29 09:46:36;;;;;;;18.40;13.27;;;;;;;7.16;100.00;100661.97;5011376;28;20080;-61
2021/12/29 09:49:02;;;;;;;14.07;12.63;;;;;;;7.17;100.00;100668.91;5012393;28;20065;-61
2021/12/29 09:51:28;;;;;;;12.70;11.32;;;;;;;7.19;100.00;100661.25;5012459;28;20030;-61
2021/12/29 09:53:53;;;;;;;13.05;11.32;;;;;;;7.19;100.00;100656.97;5009020;28;20469;-60
2021/12/29 09:56:19;;;;;;;11.73;9.85;;;;;;;7.20;100.00;100653.56;5012249;28;20036;-60
2021/12/29 09:58:44;;;;;;;13.18;11.18;;;;;;;7.21;100.00;100639.84;5012413;28;20026;-60
2021/12/29 10:01:10;;;;;;;14.73;11.98;;;;;;;7.24;100.00;100643.38;5010518;28;20026;-61
2021/12/29 10:03:37;;;;;;;14.68;11.23;;;;;;;7.22;100.00;100651.06;5010718;28;20462;-60
2021/12/29 10:06:06;;;;;;;12.65;10.85;;;;;;;7.24;100.00;100645.97;5012173;28;20079;-61
2021/12/29 10:08:34;;;;;;;11.93;10.60;;;;;;;7.23;100.00;100651.94;5012045;28;20133;-61
2021/12/29 10:11:04;;;;;;;11.40;10.20;;;;;;;7.28;100.00;100660.75;5011546;28;20048;-61
2021/12/29 10:13:32;;;;;;;11.95;9.88;;;;;;;7.29;100.00;100658.25;5011432;28;20108;-60
2021/12/29 10:16:07;;;;;;;13.52;9.40;;;;;;;7.31;100.00;100661.75;5011415;28;20038;-61
2021/12/29 10:18:36;;;;;;;12.07;9.75;;;;;;;7.38;100.00;100659.44;5012058;28;20026;-61
2021/12/29 10:21:08;;;;;;;11.57;9.30;;;;;;;7.43;100.00;100651.06;5011129;28;20427;-61
2021/12/29 10:23:37;;;;;;;13.73;8.63;;;;;;;7.47;100.00;100649.50;5011753;28;20034;-60
2021/12/29 10:26:10;;;;;;;12.48;8.82;;;;;;;7.51;100.00;100641.09;5010184;28;20032;-61
2021/12/29 10:28:39;;;;;;;12.68;8.30;;;;;;;7.51;100.00;100642.78;5011282;28;20037;-60
2021/12/29 10:31:07;;;;;;;12.30;8.48;;;;;;;7.52;100.00;100639.41;5010634;28;20096;-61
2021/12/29 10:33:39;;;;;;;10.30;7.50;;;;;;;7.54;100.00;100622.28;5009073;28;20042;-61
2021/12/29 10:36:22;;;;;;;12.05;7.60;;;;;;;7.55;100.00;100618.91;5010825;28;20030;-61
2021/12/29 10:39:18;;;;;;;11.55;7.40;;;;;;;7.52;100.00;100611.03;5010731;28;20573;-60
2021/12/29 10:41:56;;;;;;;9.85;8.02;;;;;;;7.55;100.00;100617.22;5006142;28;20057;-61
2021/12/29 10:44:25;;;;;;;11.65;7.30;;;;;;;7.53;100.00;100616.25;5006739;28;20092;-60
2021/12/29 10:46:52;;;;;;;11.68;7.50;;;;;;;7.52;100.00;100621.34;5007674;28;20048;-61
2021/12/29 10:49:18;;;;;;;8.55;6.85;;;;;;;7.56;100.00;100626.69;5008190;28;20492;-61
2021/12/29 10:51:43;;;;;;;12.88;7.80;;;;;;;7.56;100.00;100624.09;5006871;28;20033;-62
2021/12/29 10:54:20;;;;;;;9.88;6.45;;;;;;;7.57;100.00;100610.38;5008106;28;20104;-61
2021/12/29 10:56:57;;;;;;;11.98;6.75;;;;;;;7.59;100.00;100605.28;5005757;28;20037;-60
2021/12/29 10:59:28;;;;;;;13.88;6.85;;;;;;;7.62;100.00;100614.84;5008109;28;20042;-61
2021/12/29 11:01:53;;;;;;;12.55;6.47;;;;;;;7.63;100.00;100626.94;5008022;28;20095;-61
2021/12/29 11:04:20;;;;;;;12.02;7.43;;;;;;;7.64;100.00;100623.53;5008128;28;20034;-60
2021/12/29 11:06:47;;;;;;;15.35;6.82;;;;;;;7.61;100.00;100637.19;5008353;28;20071;-61
2021/12/29 11:09:15;;;;;;;10.40;6.15;;;;;;;7.61;100.00;100644.91;5007864;28;20030;-61
2021/12/29 11:11:45;;;;;;;12.65;6.30;;;;;;;7.63;100.00;100643.28;5007642;28;20530;-60
2021/12/29 11:14:22;;;;;;;12.38;6.30;;;;;;;7.63;100.00;100635.56;5008017;28;20364;-61